Readyville, Tennessee
Current Conditions -  °F | °C
As of 5:53 AM on Monday 26 Jan 2015 (Local Time) from KBNA Reporting Station
Overcast Overcast  
Wind Chill: 22°   Ceiling: 1000
Heat Index: 33°   Visibility: 10mi
Dew Point: 29°   Wind: 17mph
Humidity: 85%   Direction: 330°NNW
Pressure: 29.92"   Gusts: 26mph
Location:  35.83°N, 86.17°W
Report Text: KBNA 261153Z 33015G23KT 10SM OVC010 01/M02 A2992 RMK AO2 SLP134 70007 T00061017 10067 20006 53018 $
Loading
Personal Weather Stations






























Interactive Weather Map New forecast layout! Learn more

10-Day Weather Forecast

Advertisements
Track Severe Weather on mobile